Last 7 Days

Abernathy 3

Hourly Data | America/Los_Angeles
as of 11/27/20 12:22 PM PST
Date & Time Temp (°F) RH (%) Dew Pt (°F) Wind Spd (mph) Wind Dir (°) Wind Gust (mph) Latest Rain (In) Daily Rain (In) Daily Min Temp (°F) Daily Max Temp (°F)
11/27/20 - 1200 60.1 30 28.2 3.0 SE | 127 6.4 0.00 0.00 31.5 61.5
11/27/20 - 1100 56.9 32 27.0 2.6 E | 88 6.8 0.00 0.00 31.5 58.8
11/27/20 - 1000 51.8 43 29.7 2.2 S | 184 6.1 0.00 0.00 31.5 57.2
11/27/20 - 0900 45.3 58 30.9 0.4 NNE | 32 1.1 0.00 0.00 31.5 57.2
11/27/20 - 0800 33.8 82 28.8 0.5 NW | 310 2.4 0.00 0.00 31.5 57.2
11/27/20 - 0700 32.0 84 27.8 1.1 NW | 324 2.7 0.00 0.00 31.6 57.2
11/27/20 - 0600 33.0 81 27.8 1.1 NW | 322 3.1 0.00 0.00 31.7 57.2
11/27/20 - 0500 36.0 75 28.9 1.0 NNW | 328 3.4 0.00 0.00 33.9 57.2
11/27/20 - 0400 42.6 58 28.8 1.4 S | 179 6.4 0.00 0.00 38.0 57.2
11/27/20 - 0300 46.2 46 26.1 2.2 S | 178 5.4 0.00 0.00 43.7 57.2
11/27/20 - 0200 52.9 28 20.5 2.3 WNW | 296 6.4 0.00 0.00 46.6 57.2
11/27/20 - 0100 54.3 26 19.8 2.7 NNW | 332 12.8 0.00 0.00 52.7 55.9
11/27/20 - 0000 49.8 31 20.7 1.7 NNW | 327 7.4 0.00 0.00 42.5 64.6
11/26/20 - 2300 55.5 26 20.6 1.7 NNE | 33 6.1 0.00 0.00 42.5 64.6
11/26/20 - 2200 59.8 20 19.0 6.0 NNW | 332 13.5 0.00 0.00 42.5 64.6
11/26/20 - 2100 61.2 18 17.5 9.6 NNW | 339 19.8 0.00 0.00 42.5 64.6
11/26/20 - 2000 59.7 20 19.0 9.5 NNW | 333 20.2 0.00 0.00 42.5 64.6
11/26/20 - 1900 59.4 20 18.6 8.0 NNW | 330 16.5 0.00 0.00 42.5 64.6
11/26/20 - 1800 59.2 20 18.2 5.5 NNW | 339 12.8 0.00 0.00 42.5 64.6
11/26/20 - 1700 61.9 18 17.3 6.4 NNW | 341 14.8 0.00 0.00 42.5 64.6
11/26/20 - 1600 64.1 15 16.1 8.9 NNW | 338 18.8 0.00 0.00 42.5 64.6
11/26/20 - 1500 64.2 17 18.6 10.5 NNW | 345 21.9 0.00 0.00 42.5 64.6
11/26/20 - 1400 63.9 18 19.9 10.6 N | 349 23.2 0.00 0.00 42.5 64.3
11/26/20 - 1300 63.0 20 20.8 11.8 N | 358 22.9 0.00 0.00 42.5 63.5
11/26/20 - 1200 62.3 22 22.6 10.7 NNW | 339 19.2 0.00 0.00 42.5 63.2
11/26/20 - 1100 60.9 23 23.4 10.4 NNW | 340 21.2 0.00 0.00 42.5 62.0
11/26/20 - 1000 58.0 28 24.9 10.5 NNW | 337 21.9 0.00 0.00 42.5 59.9
11/26/20 - 0900 54.8 32 25.8 10.7 NW | 325 21.9 0.00 0.00 42.5 56.5
11/26/20 - 0800 52.3 35 25.7 9.5 NW | 326 18.8 0.00 0.00 42.5 54.4
11/26/20 - 0700 51.6 36 25.5 7.6 NW | 325 14.5 0.00 0.00 42.5 54.4
11/26/20 - 0600 52.2 35 25.6 7.9 NW | 325 15.8 0.00 0.00 42.5 54.4
11/26/20 - 0500 53.2 34 25.5 9.8 NNW | 327 18.2 0.00 0.00 42.5 54.4
11/26/20 - 0400 53.8 34 26.1 10.7 NNW | 334 22.9 0.00 0.00 42.5 54.4
11/26/20 - 0300 54.1 35 27.2 10.8 NNW | 334 22.9 0.00 0.00 42.5 54.4
11/26/20 - 0200 52.2 43 30.2 6.1 NW | 309 13.8 0.00 0.00 42.5 53.5
11/26/20 - 0100 45.7 60 32.5 2.9 WSW | 242 10.8 0.00 0.00 42.5 50.8
11/26/20 - 0000 48.7 55 33.4 3.6 NW | 307 9.1 0.00 0.00 41.3 64.8
11/25/20 - 2300 49.2 53 33.0 4.4 NW | 324 10.5 0.00 0.00 41.3 64.8
11/25/20 - 2200 44.6 68 34.7 3.0 NW | 315 10.1 0.00 0.00 41.3 64.8
11/25/20 - 2100 42.2 81 36.8 2.1 WNW | 298 4.4 0.00 0.00 41.3 64.8
11/25/20 - 2000 44.0 79 37.9 2.3 NW | 308 5.8 0.00 0.00 42.6 64.8
11/25/20 - 1900 45.7 79 39.4 1.2 NW | 310 3.1 0.00 0.00 43.2 64.8
11/25/20 - 1800 53.6 61 40.5 2.3 SE | 135 5.4 0.00 0.00 43.7 64.8
11/25/20 - 1700 60.2 47 39.6 2.9 SE | 144 7.1 0.00 0.00 43.7 64.8
11/25/20 - 1600 62.3 43 39.5 3.6 ESE | 120 6.4 0.00 0.00 43.7 64.8
11/25/20 - 1500 63.7 41 39.5 4.6 SE | 138 8.4 0.00 0.00 43.7 64.8
11/25/20 - 1400 63.8 42 40.0 4.5 S | 180 10.1 0.00 0.00 43.7 64.8
11/25/20 - 1300 63.0 46 41.6 4.4 SSE | 147 8.8 0.00 0.00 43.7 63.9
11/25/20 - 1200 61.4 50 42.6 5.4 SSE | 150 10.8 0.00 0.00 43.7 63.2
11/25/20 - 1100 60.6 49 41.2 3.1 NW | 324 8.8 0.00 0.00 43.7 63.2
11/25/20 - 1000 57.6 56 42.1 3.7 WNW | 301 12.1 0.00 0.00 43.7 58.8
11/25/20 - 0900 53.0 72 44.0 2.8 NW | 313 8.8 0.00 0.00 43.7 55.8
11/25/20 - 0800 47.5 85 43.2 1.6 W | 273 6.4 0.00 0.00 43.7 49.6
11/25/20 - 0700 48.5 82 43.3 2.0 NNW | 347 11.5 0.00 0.00 43.7 49.6
11/25/20 - 0600 48.6 82 43.5 6.7 WSW | 239 15.2 0.00 0.00 43.7 49.4
11/25/20 - 0500 46.8 87 43.1 2.2 SSW | 206 7.8 0.00 0.00 43.7 48.8
11/25/20 - 0400 45.2 88 42.0 2.4 SW | 217 7.4 0.00 0.00 43.7 48.4
11/25/20 - 0300 46.4 89 43.3 2.5 S | 179 5.4 0.00 0.00 45.0 48.4
11/25/20 - 0200 47.1 90 44.3 4.2 SSW | 208 8.1 0.00 0.00 46.5 48.4
11/25/20 - 0100 47.7 91 45.2 4.3 SW | 225 10.1 0.00 0.00 47.4 48.4
11/25/20 - 0000 49.3 88 45.9 2.9 SW | 218 10.1 0.00 0.00 33.9 70.6
11/24/20 - 2300 49.6 87 45.8 4.5 SSW | 212 11.8 0.00 0.00 33.9 70.6
11/24/20 - 2200 51.0 85 46.7 3.9 SW | 224 10.8 0.00 0.00 33.9 70.6
11/24/20 - 2100 51.6 83 46.6 6.2 SSW | 204 12.1 0.00 0.00 33.9 70.6
11/24/20 - 2000 53.0 76 45.7 5.9 SSW | 200 11.1 0.00 0.00 33.9 70.6
11/24/20 - 1900 55.9 60 42.3 5.0 WSW | 247 12.1 0.00 0.00 33.9 70.6
11/24/20 - 1800 58.1 54 41.7 3.3 SW | 234 9.1 0.00 0.00 33.9 70.6
11/24/20 - 1700 62.8 47 42.3 3.8 SSW | 201 7.8 0.00 0.00 33.9 70.6
11/24/20 - 1600 66.6 40 41.6 6.6 SW | 232 11.5 0.00 0.00 33.9 70.6
11/24/20 - 1500 67.5 39 41.6 7.7 SW | 217 12.1 0.00 0.00 33.9 70.6
11/24/20 - 1400 69.3 35 40.3 4.2 ENE | 69 11.5 0.00 0.00 33.9 70.6
11/24/20 - 1300 67.8 39 41.7 4.2 E | 89 10.5 0.00 0.00 33.9 68.7
11/24/20 - 1200 65.7 44 42.9 2.2 ESE | 117 6.1 0.00 0.00 33.9 67.3
11/24/20 - 1100 61.4 53 44.2 2.0 SE | 145 5.8 0.00 0.00 33.9 63.1
11/24/20 - 1000 55.9 66 44.5 1.1 ESE | 122 4.1 0.00 0.00 33.9 59.7
11/24/20 - 0900 45.8 91 43.4 0.4 WNW | 303 2.1 0.00 0.00 33.9 51.6
11/24/20 - 0800 37.2 96 36.2 0.9 NNW | 346 3.1 0.00 0.00 33.9 46.0
11/24/20 - 0700 34.6 95 33.4 0.9 NW | 326 3.4 0.00 0.00 33.9 46.0
11/24/20 - 0600 35.0 94 33.5 0.6 N | 11 3.1 0.00 0.00 34.3 46.0
11/24/20 - 0500 36.1 94 34.4 0.5 WSW | 258 2.4 0.00 0.00 35.3 46.0
11/24/20 - 0400 37.6 93 35.6 0.8 N | 359 3.8 0.00 0.00 37.0 46.0
11/24/20 - 0300 40.3 92 38.0 0.9 NNW | 348 3.8 0.00 0.00 38.4 46.0
11/24/20 - 0200 40.8 91 38.6 1.6 W | 270 4.1 0.00 0.00 40.4 46.0
11/24/20 - 0100 42.9 87 39.2 1.3 WSW | 258 3.8 0.00 0.00 41.0 46.0
11/24/20 - 0000 44.8 88 41.6 2.8 WNW | 298 6.8 0.00 0.00 36.2 66.7
11/23/20 - 2300 44.6 90 41.9 2.2 WNW | 300 5.1 0.00 0.00 36.2 66.7
11/23/20 - 2200 45.0 89 42.0 1.5 WSW | 254 3.8 0.00 0.00 36.2 66.7
11/23/20 - 2100 47.4 85 43.1 1.9 WNW | 285 4.8 0.00 0.00 36.2 66.7
11/23/20 - 2000 47.5 86 43.5 1.6 NW | 309 4.4 0.00 0.00 36.2 66.7
11/23/20 - 1900 51.8 76 44.3 2.0 WNW | 286 4.8 0.00 0.00 36.2 66.7
11/23/20 - 1800 55.8 67 45.2 3.4 SW | 214 6.1 0.00 0.00 36.2 66.7
11/23/20 - 1700 60.4 60 46.2 4.3 SW | 221 11.1 0.00 0.00 36.2 66.7
11/23/20 - 1600 64.5 49 44.9 7.1 SW | 231 12.1 0.00 0.00 36.2 66.7
11/23/20 - 1500 66.1 45 44.0 6.6 SW | 233 11.8 0.00 0.00 36.2 66.7
11/23/20 - 1400 65.4 44 42.8 5.0 S | 191 10.5 0.00 0.00 36.2 66.3
11/23/20 - 1300 63.7 46 42.8 4.4 S | 177 9.5 0.00 0.00 36.2 64.6
11/23/20 - 1200 62.4 48 42.4 1.4 SW | 219 5.8 0.00 0.00 36.2 63.7
11/23/20 - 1100 59.8 56 44.1 1.5 SSE | 157 4.4 0.00 0.00 36.2 62.6
11/23/20 - 1000 52.5 79 45.9 0.9 WSW | 246 3.1 0.00 0.00 36.2 56.8
11/23/20 - 0900 45.8 95 44.4 0.5 WNW | 292 2.4 0.00 0.00 36.2 51.8
11/23/20 - 0800 39.4 96 38.5 0.5 WNW | 291 2.4 0.00 0.00 36.2 51.8
11/23/20 - 0700 37.0 95 35.7 0.7 NW | 320 3.1 0.00 0.00 36.3 51.8
11/23/20 - 0600 37.5 94 35.9 0.4 WSW | 256 2.4 0.00 0.00 36.7 51.8
11/23/20 - 0500 39.1 93 37.2 1.3 N | 359 4.8 0.00 0.00 38.1 51.8
11/23/20 - 0400 40.8 90 38.0 0.9 NW | 321 4.1 0.00 0.00 39.9 51.8
11/23/20 - 0300 45.5 82 40.4 0.6 NNW | 328 3.4 0.00 0.00 42.2 51.8
11/23/20 - 0200 48.4 79 42.2 3.5 WSW | 239 8.1 0.00 0.00 45.0 51.8
11/23/20 - 0100 49.0 78 42.3 3.3 W | 259 9.1 0.00 0.00 45.0 51.8
11/23/20 - 0000 49.3 82 44.1 3.5 S | 190 7.1 0.00 0.00 32.9 64.1
11/22/20 - 2300 48.6 85 44.4 0.9 SW | 224 3.8 0.00 0.00 32.9 64.1
11/22/20 - 2200 49.8 82 44.4 1.1 S | 190 4.1 0.00 0.00 32.9 64.1
11/22/20 - 2100 51.7 76 44.5 3.7 SW | 218 10.1 0.00 0.00 32.9 64.1
11/22/20 - 2000 49.2 82 43.9 1.5 SSW | 203 5.4 0.00 0.00 32.9 64.1
11/22/20 - 1900 51.2 74 43.1 1.5 SSW | 194 5.1 0.00 0.00 32.9 64.1
11/22/20 - 1800 54.2 67 43.6 4.7 SSW | 207 8.1 0.00 0.00 32.9 64.1
11/22/20 - 1700 57.5 61 44.1 6.3 SW | 218 12.5 0.00 0.00 32.9 64.1
11/22/20 - 1600 60.2 52 42.6 8.1 SW | 226 16.2 0.00 0.00 32.9 64.1
11/22/20 - 1500 61.0 42 37.7 5.7 SSW | 205 9.5 0.00 0.00 32.9 64.1
11/22/20 - 1400 63.0 36 35.7 7.8 SSW | 211 12.8 0.00 0.00 32.9 64.1
11/22/20 - 1300 62.5 35 34.4 7.6 SSW | 195 13.2 0.00 0.00 32.9 63.8
11/22/20 - 1200 61.6 40 36.8 3.9 S | 172 9.1 0.00 0.00 32.9 62.3
11/22/20 - 1100 58.0 43 35.5 1.8 SSE | 163 5.4 0.00 0.00 32.9 60.7
11/22/20 - 1000 52.6 54 36.4 0.6 S | 179 2.7 0.00 0.00 32.9 55.9
11/22/20 - 0900 43.3 80 37.3 0.5 WNW | 286 3.1 0.00 0.00 32.9 47.7
11/22/20 - 0800 35.2 92 33.3 0.6 NW | 309 2.7 0.00 0.00 32.9 41.8
11/22/20 - 0700 34.6 91 32.1 1.1 WNW | 284 3.4 0.00 0.00 32.9 41.8
11/22/20 - 0600 35.7 92 33.7 2.1 WNW | 300 4.8 0.00 0.00 32.9 41.8
11/22/20 - 0500 33.8 93 32.0 1.5 NW | 311 4.1 0.00 0.00 32.9 41.8
11/22/20 - 0400 34.7 91 32.2 1.0 NNW | 345 3.1 0.00 0.00 33.8 41.8
11/22/20 - 0300 37.5 86 33.6 1.0 WSW | 256 3.4 0.00 0.00 34.8 41.8
11/22/20 - 0200 40.6 84 36.0 1.5 WNW | 298 4.8 0.00 0.00 39.5 41.8
11/22/20 - 0100 40.7 85 36.5 2.0 W | 281 4.1 0.00 0.00 39.5 41.6
11/22/20 - 0000 41.1 86 37.3 1.5 WNW | 294 3.4 0.00 0.00 29.8 67.1
11/21/20 - 2300 42.6 83 37.8 1.7 W | 267 3.4 0.00 0.00 29.8 67.1
11/21/20 - 2200 43.9 80 38.2 2.2 WNW | 298 4.8 0.00 0.00 29.8 67.1
11/21/20 - 2100 43.9 81 38.4 1.6 WNW | 299 4.4 0.00 0.00 29.8 67.1
11/21/20 - 2000 45.0 80 39.3 1.7 NW | 308 4.1 0.00 0.00 29.8 67.1
11/21/20 - 1900 45.3 83 40.4 1.4 NW | 322 3.4 0.00 0.00 29.8 67.1
11/21/20 - 1800 49.7 68 39.5 0.5 SW | 221 2.1 0.00 0.00 29.8 67.1
11/21/20 - 1700 60.0 44 37.5 1.3 SE | 130 4.8 0.00 0.00 29.8 67.1
11/21/20 - 1600 65.6 30 33.7 2.4 SE | 132 6.1 0.00 0.00 29.8 67.1
11/21/20 - 1500 63.4 33 34.1 3.1 SSW | 193 5.4 0.00 0.00 29.8 65.2
11/21/20 - 1400 62.4 37 35.9 3.8 SSW | 201 6.4 0.00 0.00 29.8 63.1
11/21/20 - 1300 62.1 39 36.7 3.4 SSE | 168 6.1 0.00 0.00 29.8 62.9
11/21/20 - 1200 58.8 43 36.2 2.9 S | 175 6.8 0.00 0.00 29.8 60.8
11/21/20 - 1100 54.0 52 36.8 3.2 S | 170 5.8 0.00 0.00 29.8 56.0
11/21/20 - 1000 50.1 67 39.2 1.9 SE | 144 5.8 0.00 0.00 29.8 52.4
11/21/20 - 0900 40.6 95 39.4 0.4 NNE | 24 1.1 0.00 0.00 29.8 45.9
11/21/20 - 0800 31.9 96 30.8 0.5 NNW | 332 2.1 0.00 0.00 29.8 37.6
11/21/20 - 0700 30.8 95 29.6 0.5 NW | 320 2.7 0.00 0.00 29.8 37.6
11/21/20 - 0600 30.3 95 29.0 0.9 NW | 320 3.4 0.00 0.00 29.8 37.6
11/21/20 - 0500 30.4 94 28.9 0.6 N | 0 3.1 0.00 0.00 29.8 37.6
11/21/20 - 0400 32.1 94 30.4 0.6 N | 11 2.4 0.00 0.00 31.1 37.6
11/21/20 - 0300 33.1 93 31.3 0.7 NNW | 332 2.7 0.00 0.00 32.5 37.6
11/21/20 - 0200 34.4 91 32.1 0.6 NNW | 342 2.7 0.00 0.00 33.1 37.6
11/21/20 - 0100 36.1 90 33.4 0.4 WSW | 243 1.7 0.00 0.00 35.2 37.6
11/21/20 - 0000 38.0 89 35.2 0.8 WNW | 299 3.1 0.00 0.00 32.0 71.1
11/20/20 - 2300 39.8 86 35.9 0.8 WNW | 298 3.4 0.00 0.00 32.0 71.1
11/20/20 - 2200 41.7 84 37.2 1.3 WNW | 297 3.4 0.00 0.00 32.0 71.1
11/20/20 - 2100 43.0 83 38.2 1.6 NW | 306 4.1 0.00 0.00 32.0 71.1
11/20/20 - 2000 43.0 87 39.3 1.3 NW | 305 4.1 0.00 0.00 32.0 71.1
11/20/20 - 1900 45.0 83 40.2 0.8 NW | 310 2.7 0.00 0.00 32.0 71.1
11/20/20 - 1800 52.3 66 40.9 0.8 ESE | 117 3.1 0.00 0.00 32.0 71.1
11/20/20 - 1700 62.2 45 40.7 1.3 SSW | 200 5.4 0.00 0.00 32.0 71.1
11/20/20 - 1600 67.5 31 35.2 3.0 SSW | 208 6.8 0.00 0.00 32.0 71.1
11/20/20 - 1500 69.6 25 32.1 2.2 SSE | 161 5.8 0.00 0.00 32.0 71.1
11/20/20 - 1400 69.1 25 31.8 1.8 SSE | 161 5.1 0.00 0.00 32.0 70.3
11/20/20 - 1300 66.6 29 32.9 1.9 SE | 135 5.1 0.00 0.00 32.0 68.6
Max 69.6 96 46.7 11.8 - 23.2 0.00 0.00 52.7 71.1
Avg 50.7 63 35.9 3.3 - 7.8 0.00 - - -
Min 30.3 15 16.1 0.4 - 1.1 0.00 0.00 29.8 37.6
Total - - - - - - 0.00 - - -
Tip: Bookmark this page for easy future reference